sensor_id;sensor_type;location;lat;lon;timestamp;temperature;humidity
6270;DHT22;3168;51.684;6.954;2023-03-21T00:01:53;10.20;1.00
6270;DHT22;3168;51.684;6.954;2023-03-21T00:04:19;10.20;1.00
6270;DHT22;3168;51.684;6.954;2023-03-21T00:06:44;10.30;1.00
6270;DHT22;3168;51.684;6.954;2023-03-21T00:09:10;10.20;1.00
6270;DHT22;3168;51.684;6.954;2023-03-21T00:11:36;10.20;1.00
6270;DHT22;3168;51.684;6.954;2023-03-21T00:14:02;10.20;1.00
6270;DHT22;3168;51.684;6.954;2023-03-21T00:16:28;10.20;1.00
6270;DHT22;3168;51.684;6.954;2023-03-21T00:18:53;10.20;1.00
6270;DHT22;3168;51.684;6.954;2023-03-21T00:21:21;10.20;1.00
6270;DHT22;3168;51.684;6.954;2023-03-21T00:23:47;10.20;1.00
6270;DHT22;3168;51.684;6.954;2023-03-21T00:26:19;10.20;1.00
6270;DHT22;3168;51.684;6.954;2023-03-21T00:28:45;10.20;1.00
6270;DHT22;3168;51.684;6.954;2023-03-21T00:31:11;10.20;1.00
6270;DHT22;3168;51.684;6.954;2023-03-21T00:33:38;10.20;1.00
6270;DHT22;3168;51.684;6.954;2023-03-21T00:36:04;10.20;1.00
6270;DHT22;3168;51.684;6.954;2023-03-21T00:38:30;10.30;1.00
6270;DHT22;3168;51.684;6.954;2023-03-21T00:40:56;10.30;1.00
6270;DHT22;3168;51.684;6.954;2023-03-21T00:43:22;10.40;1.00
6270;DHT22;3168;51.684;6.954;2023-03-21T00:45:48;10.30;1.00
6270;DHT22;3168;51.684;6.954;2023-03-21T00:48:13;10.30;1.00
6270;DHT22;3168;51.684;6.954;2023-03-21T00:50:39;10.30;1.00
6270;DHT22;3168;51.684;6.954;2023-03-21T00:53:05;10.30;1.00
6270;DHT22;3168;51.684;6.954;2023-03-21T00:55:31;10.30;1.00
6270;DHT22;3168;51.684;6.954;2023-03-21T00:57:57;10.30;1.00
6270;DHT22;3168;51.684;6.954;2023-03-21T01:00:23;10.20;1.00
6270;DHT22;3168;51.684;6.954;2023-03-21T01:02:49;10.20;1.00
6270;DHT22;3168;51.684;6.954;2023-03-21T01:05:23;10.20;1.00
6270;DHT22;3168;51.684;6.954;2023-03-21T01:07:48;10.20;1.00
6270;DHT22;3168;51.684;6.954;2023-03-21T01:10:14;10.20;1.00
6270;DHT22;3168;51.684;6.954;2023-03-21T01:12:40;10.20;1.00
6270;DHT22;3168;51.684;6.954;2023-03-21T01:15:06;10.10;1.00
6270;DHT22;3168;51.684;6.954;2023-03-21T01:17:33;10.10;1.00
6270;DHT22;3168;51.684;6.954;2023-03-21T01:19:58;10.10;1.00
6270;DHT22;3168;51.684;6.954;2023-03-21T01:22:24;10.10;1.00
6270;DHT22;3168;51.684;6.954;2023-03-21T01:24:50;10.00;1.00
6270;DHT22;3168;51.684;6.954;2023-03-21T01:27:16;10.00;1.00
6270;DHT22;3168;51.684;6.954;2023-03-21T01:29:42;10.00;1.00
6270;DHT22;3168;51.684;6.954;2023-03-21T01:32:09;10.00;1.00
6270;DHT22;3168;51.684;6.954;2023-03-21T01:34:35;10.00;1.00
6270;DHT22;3168;51.684;6.954;2023-03-21T01:37:01;10.00;1.00
6270;DHT22;3168;51.684;6.954;2023-03-21T01:39:26;10.00;1.00
6270;DHT22;3168;51.684;6.954;2023-03-21T01:41:52;10.00;1.00
6270;DHT22;3168;51.684;6.954;2023-03-21T01:44:18;10.00;1.00
6270;DHT22;3168;51.684;6.954;2023-03-21T01:46:47;10.00;1.00
6270;DHT22;3168;51.684;6.954;2023-03-21T01:49:15;10.00;1.00
6270;DHT22;3168;51.684;6.954;2023-03-21T01:51:43;10.00;1.00
6270;DHT22;3168;51.684;6.954;2023-03-21T01:54:08;9.90;1.00
6270;DHT22;3168;51.684;6.954;2023-03-21T01:56:34;10.00;1.00
6270;DHT22;3168;51.684;6.954;2023-03-21T01:59:01;10.00;1.00
6270;DHT22;3168;51.684;6.954;2023-03-21T02:01:26;10.00;1.00
6270;DHT22;3168;51.684;6.954;2023-03-21T02:03:51;9.90;1.00
6270;DHT22;3168;51.684;6.954;2023-03-21T02:06:31;10.00;1.00
6270;DHT22;3168;51.684;6.954;2023-03-21T02:09:00;10.10;1.00
6270;DHT22;3168;51.684;6.954;2023-03-21T02:11:25;10.00;1.00
6270;DHT22;3168;51.684;6.954;2023-03-21T02:13:51;10.10;1.00
6270;DHT22;3168;51.684;6.954;2023-03-21T02:16:26;10.00;1.00
6270;DHT22;3168;51.684;6.954;2023-03-21T02:19:30;10.10;1.00
6270;DHT22;3168;51.684;6.954;2023-03-21T02:24:48;10.00;1.00
6270;DHT22;3168;51.684;6.954;2023-03-21T02:27:19;10.00;1.00
6270;DHT22;3168;51.684;6.954;2023-03-21T02:33:14;10.00;1.00
6270;DHT22;3168;51.684;6.954;2023-03-21T02:35:45;10.00;1.00
6270;DHT22;3168;51.684;6.954;2023-03-21T02:38:14;9.90;1.00
6270;DHT22;3168;51.684;6.954;2023-03-21T02:40:41;10.00;1.00
6270;DHT22;3168;51.684;6.954;2023-03-21T02:43:16;10.10;1.00
6270;DHT22;3168;51.684;6.954;2023-03-21T02:45:44;10.10;1.00
6270;DHT22;3168;51.684;6.954;2023-03-21T02:48:10;10.10;1.00
6270;DHT22;3168;51.684;6.954;2023-03-21T02:50:42;10.00;1.00
6270;DHT22;3168;51.684;6.954;2023-03-21T02:53:10;10.00;1.00
6270;DHT22;3168;51.684;6.954;2023-03-21T02:55:36;10.00;1.00
6270;DHT22;3168;51.684;6.954;2023-03-21T02:58:02;9.90;1.00
6270;DHT22;3168;51.684;6.954;2023-03-21T03:00:29;9.90;1.00
6270;DHT22;3168;51.684;6.954;2023-03-21T03:02:54;9.90;1.00
6270;DHT22;3168;51.684;6.954;2023-03-21T03:05:22;9.90;1.00
6270;DHT22;3168;51.684;6.954;2023-03-21T03:07:55;9.90;1.00
6270;DHT22;3168;51.684;6.954;2023-03-21T03:10:37;10.00;1.00
6270;DHT22;3168;51.684;6.954;2023-03-21T03:13:11;9.90;1.00
6270;DHT22;3168;51.684;6.954;2023-03-21T03:15:55;9.90;1.00
6270;DHT22;3168;51.684;6.954;2023-03-21T03:18:51;9.90;1.00
6270;DHT22;3168;51.684;6.954;2023-03-21T03:21:37;9.90;1.00
6270;DHT22;3168;51.684;6.954;2023-03-21T03:24:09;9.80;1.00
6270;DHT22;3168;51.684;6.954;2023-03-21T03:26:35;9.80;1.00
6270;DHT22;3168;51.684;6.954;2023-03-21T03:29:01;9.80;1.00
6270;DHT22;3168;51.684;6.954;2023-03-21T03:31:28;9.80;1.00
6270;DHT22;3168;51.684;6.954;2023-03-21T03:33:54;9.80;1.00
6270;DHT22;3168;51.684;6.954;2023-03-21T03:36:19;9.90;1.00
6270;DHT22;3168;51.684;6.954;2023-03-21T03:38:45;9.90;1.00
6270;DHT22;3168;51.684;6.954;2023-03-21T03:41:13;10.00;1.00
6270;DHT22;3168;51.684;6.954;2023-03-21T03:43:39;9.80;1.00
6270;DHT22;3168;51.684;6.954;2023-03-21T03:46:10;9.80;1.00
6270;DHT22;3168;51.684;6.954;2023-03-21T03:48:38;9.70;1.00
6270;DHT22;3168;51.684;6.954;2023-03-21T03:51:05;9.80;1.00
6270;DHT22;3168;51.684;6.954;2023-03-21T03:53:32;9.80;1.00
6270;DHT22;3168;51.684;6.954;2023-03-21T03:55:55;9.80;1.00
6270;DHT22;3168;51.684;6.954;2023-03-21T03:58:21;9.80;1.00
6270;DHT22;3168;51.684;6.954;2023-03-21T04:00:46;9.70;1.00
6270;DHT22;3168;51.684;6.954;2023-03-21T04:03:12;9.70;1.00
6270;DHT22;3168;51.684;6.954;2023-03-21T04:05:38;9.70;1.00
6270;DHT22;3168;51.684;6.954;2023-03-21T04:08:04;9.60;1.00
6270;DHT22;3168;51.684;6.954;2023-03-21T04:10:30;9.60;1.00
6270;DHT22;3168;51.684;6.954;2023-03-21T04:12:56;9.70;1.00
6270;DHT22;3168;51.684;6.954;2023-03-21T04:15:22;9.60;1.00
6270;DHT22;3168;51.684;6.954;2023-03-21T04:17:49;9.60;1.00
6270;DHT22;3168;51.684;6.954;2023-03-21T04:20:15;9.60;1.00
6270;DHT22;3168;51.684;6.954;2023-03-21T04:22:41;9.50;1.00
6270;DHT22;3168;51.684;6.954;2023-03-21T04:25:08;9.50;1.00
6270;DHT22;3168;51.684;6.954;2023-03-21T04:27:34;9.50;1.00
6270;DHT22;3168;51.684;6.954;2023-03-21T04:29:59;9.60;1.00
6270;DHT22;3168;51.684;6.954;2023-03-21T04:32:26;9.60;1.00
6270;DHT22;3168;51.684;6.954;2023-03-21T04:34:51;9.60;1.00
6270;DHT22;3168;51.684;6.954;2023-03-21T04:37:17;9.60;1.00
6270;DHT22;3168;51.684;6.954;2023-03-21T04:39:43;9.60;1.00
6270;DHT22;3168;51.684;6.954;2023-03-21T04:42:09;9.60;1.00
6270;DHT22;3168;51.684;6.954;2023-03-21T04:44:34;9.60;1.00
6270;DHT22;3168;51.684;6.954;2023-03-21T04:47:00;9.60;1.00
6270;DHT22;3168;51.684;6.954;2023-03-21T04:49:26;9.70;1.00
6270;DHT22;3168;51.684;6.954;2023-03-21T04:51:52;9.70;1.00
6270;DHT22;3168;51.684;6.954;2023-03-21T04:54:18;9.60;1.00
6270;DHT22;3168;51.684;6.954;2023-03-21T04:56:44;9.60;1.00
6270;DHT22;3168;51.684;6.954;2023-03-21T04:59:12;9.70;1.00
6270;DHT22;3168;51.684;6.954;2023-03-21T05:01:36;9.60;1.00
6270;DHT22;3168;51.684;6.954;2023-03-21T05:04:02;9.70;1.00
6270;DHT22;3168;51.684;6.954;2023-03-21T05:06:28;9.70;1.00
6270;DHT22;3168;51.684;6.954;2023-03-21T05:08:54;9.70;1.00
6270;DHT22;3168;51.684;6.954;2023-03-21T05:11:20;9.60;1.00
6270;DHT22;3168;51.684;6.954;2023-03-21T05:13:46;9.60;1.00
6270;DHT22;3168;51.684;6.954;2023-03-21T05:16:12;9.60;1.00
6270;DHT22;3168;51.684;6.954;2023-03-21T05:18:38;9.60;1.00
6270;DHT22;3168;51.684;6.954;2023-03-21T05:21:04;9.60;1.00
6270;DHT22;3168;51.684;6.954;2023-03-21T05:23:30;9.60;1.00
6270;DHT22;3168;51.684;6.954;2023-03-21T05:25:56;9.60;1.00
6270;DHT22;3168;51.684;6.954;2023-03-21T05:28:21;9.60;1.00
6270;DHT22;3168;51.684;6.954;2023-03-21T05:30:47;9.60;1.00
6270;DHT22;3168;51.684;6.954;2023-03-21T05:33:14;9.60;1.00
6270;DHT22;3168;51.684;6.954;2023-03-21T05:35:40;9.60;1.00
6270;DHT22;3168;51.684;6.954;2023-03-21T05:38:06;9.50;1.00
6270;DHT22;3168;51.684;6.954;2023-03-21T05:40:32;9.50;1.00
6270;DHT22;3168;51.684;6.954;2023-03-21T05:42:57;9.40;1.00
6270;DHT22;3168;51.684;6.954;2023-03-21T05:45:23;9.40;1.00
6270;DHT22;3168;51.684;6.954;2023-03-21T05:47:49;9.40;1.00
6270;DHT22;3168;51.684;6.954;2023-03-21T05:50:15;9.30;1.00
6270;DHT22;3168;51.684;6.954;2023-03-21T05:52:41;9.30;1.00
6270;DHT22;3168;51.684;6.954;2023-03-21T05:55:07;9.30;1.00
6270;DHT22;3168;51.684;6.954;2023-03-21T05:57:33;9.40;1.00
6270;DHT22;3168;51.684;6.954;2023-03-21T05:59:59;9.30;1.00
6270;DHT22;3168;51.684;6.954;2023-03-21T06:02:25;9.20;1.00
6270;DHT22;3168;51.684;6.954;2023-03-21T06:04:51;9.20;2.90
6270;DHT22;3168;51.684;6.954;2023-03-21T06:07:17;9.20;5.60
6270;DHT22;3168;51.684;6.954;2023-03-21T06:09:43;9.20;6.50
6270;DHT22;3168;51.684;6.954;2023-03-21T06:12:09;9.30;8.90
6270;DHT22;3168;51.684;6.954;2023-03-21T06:14:34;9.20;9.90
6270;DHT22;3168;51.684;6.954;2023-03-21T06:17:00;9.20;13.90
6270;DHT22;3168;51.684;6.954;2023-03-21T06:19:26;9.30;17.30
6270;DHT22;3168;51.684;6.954;2023-03-21T06:21:52;9.20;17.40
6270;DHT22;3168;51.684;6.954;2023-03-21T06:24:18;9.20;20.90
6270;DHT22;3168;51.684;6.954;2023-03-21T06:26:44;9.20;20.70
6270;DHT22;3168;51.684;6.954;2023-03-21T06:29:11;9.20;21.40
6270;DHT22;3168;51.684;6.954;2023-03-21T06:31:37;9.20;22.20
6270;DHT22;3168;51.684;6.954;2023-03-21T06:34:03;9.20;23.70
6270;DHT22;3168;51.684;6.954;2023-03-21T06:36:28;9.20;27.40
6270;DHT22;3168;51.684;6.954;2023-03-21T06:38:54;9.20;29.00
6270;DHT22;3168;51.684;6.954;2023-03-21T06:41:20;9.30;33.70
6270;DHT22;3168;51.684;6.954;2023-03-21T06:43:46;9.30;33.10
6270;DHT22;3168;51.684;6.954;2023-03-21T06:46:12;9.20;33.40
6270;DHT22;3168;51.684;6.954;2023-03-21T06:48:38;9.30;33.80
6270;DHT22;3168;51.684;6.954;2023-03-21T06:51:04;9.30;33.90
6270;DHT22;3168;51.684;6.954;2023-03-21T06:53:30;9.30;34.70
6270;DHT22;3168;51.684;6.954;2023-03-21T06:55:56;9.30;35.00
6270;DHT22;3168;51.684;6.954;2023-03-21T06:58:23;9.30;38.00
6270;DHT22;3168;51.684;6.954;2023-03-21T07:00:48;9.40;38.30
6270;DHT22;3168;51.684;6.954;2023-03-21T07:03:14;9.40;35.10
6270;DHT22;3168;51.684;6.954;2023-03-21T07:05:39;9.40;33.80
6270;DHT22;3168;51.684;6.954;2023-03-21T07:08:06;9.40;29.70
6270;DHT22;3168;51.684;6.954;2023-03-21T07:10:31;9.40;25.30
6270;DHT22;3168;51.684;6.954;2023-03-21T07:12:58;9.40;25.30
6270;DHT22;3168;51.684;6.954;2023-03-21T07:15:24;9.50;21.50
6270;DHT22;3168;51.684;6.954;2023-03-21T07:17:50;9.50;17.20
6270;DHT22;3168;51.684;6.954;2023-03-21T07:20:16;9.50;13.30
6270;DHT22;3168;51.684;6.954;2023-03-21T07:22:42;9.60;9.60
6270;DHT22;3168;51.684;6.954;2023-03-21T07:25:08;9.60;3.60
6270;DHT22;3168;51.684;6.954;2023-03-21T07:27:34;9.60;1.30
6270;DHT22;3168;51.684;6.954;2023-03-21T07:29:59;9.70;1.00
6270;DHT22;3168;51.684;6.954;2023-03-21T07:32:25;9.70;1.00
6270;DHT22;3168;51.684;6.954;2023-03-21T07:34:51;9.70;1.00
6270;DHT22;3168;51.684;6.954;2023-03-21T07:37:17;9.80;1.00
6270;DHT22;3168;51.684;6.954;2023-03-21T07:39:43;9.80;1.00
6270;DHT22;3168;51.684;6.954;2023-03-21T07:42:09;9.90;1.00
6270;DHT22;3168;51.684;6.954;2023-03-21T07:44:35;9.90;1.00
6270;DHT22;3168;51.684;6.954;2023-03-21T07:47:01;9.90;1.00
6270;DHT22;3168;51.684;6.954;2023-03-21T07:49:27;10.00;1.00
6270;DHT22;3168;51.684;6.954;2023-03-21T07:51:52;10.00;1.00
6270;DHT22;3168;51.684;6.954;2023-03-21T07:54:18;10.00;1.00
6270;DHT22;3168;51.684;6.954;2023-03-21T07:56:44;10.10;1.00
6270;DHT22;3168;51.684;6.954;2023-03-21T07:59:10;10.10;1.00
6270;DHT22;3168;51.684;6.954;2023-03-21T08:01:36;10.20;1.00
6270;DHT22;3168;51.684;6.954;2023-03-21T08:04:01;10.20;1.00
6270;DHT22;3168;51.684;6.954;2023-03-21T08:06:27;10.20;1.00
6270;DHT22;3168;51.684;6.954;2023-03-21T08:08:53;10.10;1.00
6270;DHT22;3168;51.684;6.954;2023-03-21T08:11:19;10.10;1.00
6270;DHT22;3168;51.684;6.954;2023-03-21T08:13:45;10.20;1.00
6270;DHT22;3168;51.684;6.954;2023-03-21T08:16:11;10.20;1.00
6270;DHT22;3168;51.684;6.954;2023-03-21T08:18:37;10.30;1.00
6270;DHT22;3168;51.684;6.954;2023-03-21T08:21:03;10.30;1.00
6270;DHT22;3168;51.684;6.954;2023-03-21T08:23:28;10.40;1.00
6270;DHT22;3168;51.684;6.954;2023-03-21T08:25:54;10.40;1.00
6270;DHT22;3168;51.684;6.954;2023-03-21T08:28:20;10.50;1.00
6270;DHT22;3168;51.684;6.954;2023-03-21T08:30:46;10.40;1.00
6270;DHT22;3168;51.684;6.954;2023-03-21T08:33:12;10.50;1.00
6270;DHT22;3168;51.684;6.954;2023-03-21T08:35:38;10.50;1.00
6270;DHT22;3168;51.684;6.954;2023-03-21T08:38:04;10.60;1.00
6270;DHT22;3168;51.684;6.954;2023-03-21T08:40:29;10.60;1.00
6270;DHT22;3168;51.684;6.954;2023-03-21T08:42:55;10.70;1.00
6270;DHT22;3168;51.684;6.954;2023-03-21T08:45:21;10.80;1.00
6270;DHT22;3168;51.684;6.954;2023-03-21T08:47:47;10.90;1.00
6270;DHT22;3168;51.684;6.954;2023-03-21T08:50:15;10.90;1.00
6270;DHT22;3168;51.684;6.954;2023-03-21T08:52:39;10.90;1.00
6270;DHT22;3168;51.684;6.954;2023-03-21T08:55:05;10.80;1.00
6270;DHT22;3168;51.684;6.954;2023-03-21T08:57:31;10.90;1.00
6270;DHT22;3168;51.684;6.954;2023-03-21T08:59:57;10.70;1.00
6270;DHT22;3168;51.684;6.954;2023-03-21T09:02:23;10.70;1.00
6270;DHT22;3168;51.684;6.954;2023-03-21T09:04:48;10.60;1.00
6270;DHT22;3168;51.684;6.954;2023-03-21T09:07:14;10.70;1.00
6270;DHT22;3168;51.684;6.954;2023-03-21T09:09:40;10.60;1.00
6270;DHT22;3168;51.684;6.954;2023-03-21T09:12:06;10.60;1.00
6270;DHT22;3168;51.684;6.954;2023-03-21T09:14:32;10.60;1.00
6270;DHT22;3168;51.684;6.954;2023-03-21T09:16:58;10.70;1.00
6270;DHT22;3168;51.684;6.954;2023-03-21T09:19:23;10.60;1.00
6270;DHT22;3168;51.684;6.954;2023-03-21T09:21:49;10.60;1.00
6270;DHT22;3168;51.684;6.954;2023-03-21T09:24:15;10.60;1.00
6270;DHT22;3168;51.684;6.954;2023-03-21T09:26:41;10.60;1.00
6270;DHT22;3168;51.684;6.954;2023-03-21T09:29:07;10.60;1.00
6270;DHT22;3168;51.684;6.954;2023-03-21T09:31:33;10.60;1.00
6270;DHT22;3168;51.684;6.954;2023-03-21T09:33:59;10.50;1.00
6270;DHT22;3168;51.684;6.954;2023-03-21T09:36:24;10.70;1.00
6270;DHT22;3168;51.684;6.954;2023-03-21T09:38:50;10.70;1.00
6270;DHT22;3168;51.684;6.954;2023-03-21T09:41:30;10.70;1.00
6270;DHT22;3168;51.684;6.954;2023-03-21T09:44:05;10.80;1.00
6270;DHT22;3168;51.684;6.954;2023-03-21T09:46:35;10.90;1.00
6270;DHT22;3168;51.684;6.954;2023-03-21T09:49:00;10.80;1.00
6270;DHT22;3168;51.684;6.954;2023-03-21T09:51:25;10.80;1.00
6270;DHT22;3168;51.684;6.954;2023-03-21T09:53:50;10.80;1.00
6270;DHT22;3168;51.684;6.954;2023-03-21T09:56:16;10.70;1.00
6270;DHT22;3168;51.684;6.954;2023-03-21T09:58:43;10.80;1.00
6270;DHT22;3168;51.684;6.954;2023-03-21T10:01:09;10.70;1.00
6270;DHT22;3168;51.684;6.954;2023-03-21T10:03:35;10.90;1.00
6270;DHT22;3168;51.684;6.954;2023-03-21T10:06:03;10.80;1.00
6270;DHT22;3168;51.684;6.954;2023-03-21T10:08:31;10.80;1.00
6270;DHT22;3168;51.684;6.954;2023-03-21T10:10:58;10.90;1.00
6270;DHT22;3168;51.684;6.954;2023-03-21T10:13:25;10.80;1.00
6270;DHT22;3168;51.684;6.954;2023-03-21T10:15:50;10.90;1.00
6270;DHT22;3168;51.684;6.954;2023-03-21T10:18:20;10.90;1.00
6270;DHT22;3168;51.684;6.954;2023-03-21T10:20:43;11.00;1.00
6270;DHT22;3168;51.684;6.954;2023-03-21T10:23:11;11.20;1.00
6270;DHT22;3168;51.684;6.954;2023-03-21T10:25:37;11.20;1.00
6270;DHT22;3168;51.684;6.954;2023-03-21T10:28:03;11.30;1.00
6270;DHT22;3168;51.684;6.954;2023-03-21T10:30:37;11.30;1.00
6270;DHT22;3168;51.684;6.954;2023-03-21T10:33:02;11.40;1.00
6270;DHT22;3168;51.684;6.954;2023-03-21T10:35:27;11.60;1.00
6270;DHT22;3168;51.684;6.954;2023-03-21T10:37:53;11.50;1.00
6270;DHT22;3168;51.684;6.954;2023-03-21T10:40:19;11.50;1.00
6270;DHT22;3168;51.684;6.954;2023-03-21T10:42:45;11.40;1.00
6270;DHT22;3168;51.684;6.954;2023-03-21T10:45:13;11.30;1.00
6270;DHT22;3168;51.684;6.954;2023-03-21T10:47:38;11.40;1.00
6270;DHT22;3168;51.684;6.954;2023-03-21T10:55:44;11.20;1.00
6270;DHT22;3168;51.684;6.954;2023-03-21T10:58:13;11.20;1.00
6270;DHT22;3168;51.684;6.954;2023-03-21T11:00:37;11.20;1.00
6270;DHT22;3168;51.684;6.954;2023-03-21T11:03:02;11.20;1.00
6270;DHT22;3168;51.684;6.954;2023-03-21T11:05:34;11.20;1.00
6270;DHT22;3168;51.684;6.954;2023-03-21T11:08:02;11.10;1.00
6270;DHT22;3168;51.684;6.954;2023-03-21T11:10:28;10.90;1.00
6270;DHT22;3168;51.684;6.954;2023-03-21T11:12:55;10.80;1.00
6270;DHT22;3168;51.684;6.954;2023-03-21T11:15:28;10.80;1.00
6270;DHT22;3168;51.684;6.954;2023-03-21T11:17:53;11.00;1.00
6270;DHT22;3168;51.684;6.954;2023-03-21T11:20:19;11.00;1.00
6270;DHT22;3168;51.684;6.954;2023-03-21T11:22:45;11.10;1.00
6270;DHT22;3168;51.684;6.954;2023-03-21T11:25:24;11.40;1.00
6270;DHT22;3168;51.684;6.954;2023-03-21T11:27:49;11.40;1.00
6270;DHT22;3168;51.684;6.954;2023-03-21T11:30:20;11.60;1.00
6270;DHT22;3168;51.684;6.954;2023-03-21T11:32:45;11.60;1.00
6270;DHT22;3168;51.684;6.954;2023-03-21T11:35:15;11.70;1.00
6270;DHT22;3168;51.684;6.954;2023-03-21T11:37:41;11.80;1.00
6270;DHT22;3168;51.684;6.954;2023-03-21T11:40:29;11.80;1.00
6270;DHT22;3168;51.684;6.954;2023-03-21T11:42:56;11.80;1.00
6270;DHT22;3168;51.684;6.954;2023-03-21T11:45:23;11.90;1.00
6270;DHT22;3168;51.684;6.954;2023-03-21T11:47:49;11.70;1.00
6270;DHT22;3168;51.684;6.954;2023-03-21T11:50:18;11.80;1.00
6270;DHT22;3168;51.684;6.954;2023-03-21T11:52:47;11.90;1.00
6270;DHT22;3168;51.684;6.954;2023-03-21T11:55:19;12.00;1.00
6270;DHT22;3168;51.684;6.954;2023-03-21T11:57:52;12.00;1.00
6270;DHT22;3168;51.684;6.954;2023-03-21T12:00:17;12.00;1.00
6270;DHT22;3168;51.684;6.954;2023-03-21T12:05:38;11.90;1.00
6270;DHT22;3168;51.684;6.954;2023-03-21T12:08:17;12.00;1.00
6270;DHT22;3168;51.684;6.954;2023-03-21T12:10:41;12.10;1.00
6270;DHT22;3168;51.684;6.954;2023-03-21T12:13:18;12.30;1.00
6270;DHT22;3168;51.684;6.954;2023-03-21T12:16:04;12.30;1.00
6270;DHT22;3168;51.684;6.954;2023-03-21T12:18:58;12.30;1.00
6270;DHT22;3168;51.684;6.954;2023-03-21T12:24:17;12.40;1.00
6270;DHT22;3168;51.684;6.954;2023-03-21T12:26:49;12.30;1.00
6270;DHT22;3168;51.684;6.954;2023-03-21T12:29:23;12.60;1.00
6270;DHT22;3168;51.684;6.954;2023-03-21T12:35:08;12.40;1.00
6270;DHT22;3168;51.684;6.954;2023-03-21T12:37:43;12.30;1.00
6270;DHT22;3168;51.684;6.954;2023-03-21T12:40:33;12.40;1.00
6270;DHT22;3168;51.684;6.954;2023-03-21T12:43:11;12.40;1.00
6270;DHT22;3168;51.684;6.954;2023-03-21T12:45:33;12.40;1.00
6270;DHT22;3168;51.684;6.954;2023-03-21T12:48:04;12.40;1.00
6270;DHT22;3168;51.684;6.954;2023-03-21T12:50:28;12.40;1.00
6270;DHT22;3168;51.684;6.954;2023-03-21T12:52:57;12.50;1.00
6270;DHT22;3168;51.684;6.954;2023-03-21T12:55:22;12.50;1.00
6270;DHT22;3168;51.684;6.954;2023-03-21T12:57:49;12.50;1.00
6270;DHT22;3168;51.684;6.954;2023-03-21T13:00:19;12.50;1.00
6270;DHT22;3168;51.684;6.954;2023-03-21T13:02:52;12.40;1.00
6270;DHT22;3168;51.684;6.954;2023-03-21T13:05:25;12.50;1.00
6270;DHT22;3168;51.684;6.954;2023-03-21T13:07:49;12.50;1.00
6270;DHT22;3168;51.684;6.954;2023-03-21T13:10:15;12.60;1.00
6270;DHT22;3168;51.684;6.954;2023-03-21T13:12:47;12.70;1.00
6270;DHT22;3168;51.684;6.954;2023-03-21T13:15:30;12.80;1.00
6270;DHT22;3168;51.684;6.954;2023-03-21T13:18:01;12.90;1.00
6270;DHT22;3168;51.684;6.954;2023-03-21T13:20:31;12.90;1.00
6270;DHT22;3168;51.684;6.954;2023-03-21T13:22:54;12.80;1.00
6270;DHT22;3168;51.684;6.954;2023-03-21T13:25:21;12.70;1.00
6270;DHT22;3168;51.684;6.954;2023-03-21T13:28:04;12.70;1.00
6270;DHT22;3168;51.684;6.954;2023-03-21T13:30:31;12.60;1.00
6270;DHT22;3168;51.684;6.954;2023-03-21T13:33:05;12.60;1.00
6270;DHT22;3168;51.684;6.954;2023-03-21T13:35:34;12.60;1.00
6270;DHT22;3168;51.684;6.954;2023-03-21T13:38:02;12.60;1.00
6270;DHT22;3168;51.684;6.954;2023-03-21T13:40:33;12.80;1.00
6270;DHT22;3168;51.684;6.954;2023-03-21T13:42:54;12.70;1.00
6270;DHT22;3168;51.684;6.954;2023-03-21T13:45:24;12.90;1.00
6270;DHT22;3168;51.684;6.954;2023-03-21T13:47:54;13.00;1.00
6270;DHT22;3168;51.684;6.954;2023-03-21T13:50:20;13.00;1.00
6270;DHT22;3168;51.684;6.954;2023-03-21T13:53:18;13.00;1.00
6270;DHT22;3168;51.684;6.954;2023-03-21T13:55:40;13.10;1.00
6270;DHT22;3168;51.684;6.954;2023-03-21T14:00:42;12.90;1.00
6270;DHT22;3168;51.684;6.954;2023-03-21T14:03:09;13.00;1.00
6270;DHT22;3168;51.684;6.954;2023-03-21T14:05:34;12.90;1.00
6270;DHT22;3168;51.684;6.954;2023-03-21T14:08:00;12.80;1.00
6270;DHT22;3168;51.684;6.954;2023-03-21T14:10:28;12.80;1.00
6270;DHT22;3168;51.684;6.954;2023-03-21T14:12:52;12.90;1.00
6270;DHT22;3168;51.684;6.954;2023-03-21T14:15:22;12.90;1.00
6270;DHT22;3168;51.684;6.954;2023-03-21T14:18:04;12.90;1.00
6270;DHT22;3168;51.684;6.954;2023-03-21T14:20:30;13.00;1.00
6270;DHT22;3168;51.684;6.954;2023-03-21T14:22:55;13.10;1.00
6270;DHT22;3168;51.684;6.954;2023-03-21T14:25:22;13.20;1.00
6270;DHT22;3168;51.684;6.954;2023-03-21T14:27:48;13.00;1.00
6270;DHT22;3168;51.684;6.954;2023-03-21T14:30:22;13.00;1.00
6270;DHT22;3168;51.684;6.954;2023-03-21T14:32:46;13.00;1.00
6270;DHT22;3168;51.684;6.954;2023-03-21T14:35:12;13.20;1.00
6270;DHT22;3168;51.684;6.954;2023-03-21T14:37:39;13.20;1.00
6270;DHT22;3168;51.684;6.954;2023-03-21T14:40:05;13.10;1.00
6270;DHT22;3168;51.684;6.954;2023-03-21T14:42:33;12.90;1.00
6270;DHT22;3168;51.684;6.954;2023-03-21T14:44:57;12.90;1.00
6270;DHT22;3168;51.684;6.954;2023-03-21T14:47:24;12.90;1.00
6270;DHT22;3168;51.684;6.954;2023-03-21T14:49:50;13.00;1.00
6270;DHT22;3168;51.684;6.954;2023-03-21T14:52:17;13.00;1.00
6270;DHT22;3168;51.684;6.954;2023-03-21T14:54:43;12.90;1.00
6270;DHT22;3168;51.684;6.954;2023-03-21T14:57:09;13.00;1.00
6270;DHT22;3168;51.684;6.954;2023-03-21T14:59:34;13.00;1.00
6270;DHT22;3168;51.684;6.954;2023-03-21T15:02:00;13.10;1.00
6270;DHT22;3168;51.684;6.954;2023-03-21T15:04:25;13.00;1.00
6270;DHT22;3168;51.684;6.954;2023-03-21T15:06:55;13.20;1.00
6270;DHT22;3168;51.684;6.954;2023-03-21T15:09:21;13.30;1.00
6270;DHT22;3168;51.684;6.954;2023-03-21T15:11:48;13.20;1.00
6270;DHT22;3168;51.684;6.954;2023-03-21T15:14:11;13.20;1.00
6270;DHT22;3168;51.684;6.954;2023-03-21T15:16:37;13.20;1.00
6270;DHT22;3168;51.684;6.954;2023-03-21T15:19:03;13.30;1.00
6270;DHT22;3168;51.684;6.954;2023-03-21T15:21:32;13.80;1.00
6270;DHT22;3168;51.684;6.954;2023-03-21T15:24:09;13.70;1.00
6270;DHT22;3168;51.684;6.954;2023-03-21T15:26:33;14.00;1.00
6270;DHT22;3168;51.684;6.954;2023-03-21T15:28:59;14.30;1.00
6270;DHT22;3168;51.684;6.954;2023-03-21T15:31:40;14.40;1.00
6270;DHT22;3168;51.684;6.954;2023-03-21T15:34:06;14.50;1.00
6270;DHT22;3168;51.684;6.954;2023-03-21T15:36:32;14.60;1.00
6270;DHT22;3168;51.684;6.954;2023-03-21T15:39:00;14.70;1.00
6270;DHT22;3168;51.684;6.954;2023-03-21T15:41:28;14.70;1.00
6270;DHT22;3168;51.684;6.954;2023-03-21T15:46:46;14.50;1.00
6270;DHT22;3168;51.684;6.954;2023-03-21T15:49:24;14.20;1.00
6270;DHT22;3168;51.684;6.954;2023-03-21T15:51:51;13.80;1.00
6270;DHT22;3168;51.684;6.954;2023-03-21T15:54:19;13.60;1.00
6270;DHT22;3168;51.684;6.954;2023-03-21T15:56:42;13.40;1.00
6270;DHT22;3168;51.684;6.954;2023-03-21T15:59:09;13.30;1.00
6270;DHT22;3168;51.684;6.954;2023-03-21T16:01:34;13.20;1.00
6270;DHT22;3168;51.684;6.954;2023-03-21T16:04:01;13.30;1.00
6270;DHT22;3168;51.684;6.954;2023-03-21T16:06:34;13.40;1.00
6270;DHT22;3168;51.684;6.954;2023-03-21T16:09:11;13.40;1.00
6270;DHT22;3168;51.684;6.954;2023-03-21T16:11:41;13.40;1.00
6270;DHT22;3168;51.684;6.954;2023-03-21T16:14:06;13.30;1.00
6270;DHT22;3168;51.684;6.954;2023-03-21T16:16:32;13.30;1.00
6270;DHT22;3168;51.684;6.954;2023-03-21T16:18:58;13.20;1.00
6270;DHT22;3168;51.684;6.954;2023-03-21T16:21:25;13.30;1.00
6270;DHT22;3168;51.684;6.954;2023-03-21T16:23:49;13.30;1.00
6270;DHT22;3168;51.684;6.954;2023-03-21T16:26:16;13.20;1.00
6270;DHT22;3168;51.684;6.954;2023-03-21T16:28:41;13.20;1.00
6270;DHT22;3168;51.684;6.954;2023-03-21T16:31:10;13.20;1.00
6270;DHT22;3168;51.684;6.954;2023-03-21T16:33:34;13.10;1.00
6270;DHT22;3168;51.684;6.954;2023-03-21T16:36:00;13.20;1.00
6270;DHT22;3168;51.684;6.954;2023-03-21T16:38:26;13.00;1.00
6270;DHT22;3168;51.684;6.954;2023-03-21T16:40:52;13.00;1.00
6270;DHT22;3168;51.684;6.954;2023-03-21T16:43:17;12.90;1.00
6270;DHT22;3168;51.684;6.954;2023-03-21T16:45:43;12.90;1.00
6270;DHT22;3168;51.684;6.954;2023-03-21T16:48:09;12.90;1.00
6270;DHT22;3168;51.684;6.954;2023-03-21T16:50:36;12.90;1.00